sensor_id;sensor_type;location;lat;lon;timestamp;P1;durP1;ratioP1;P2;durP2;ratioP2
1320;SDS011;653;51.480;11.992;2023-05-14T00:00:29;10.73;;;9.67;;
1320;SDS011;653;51.480;11.992;2023-05-14T00:02:55;10.60;;;9.50;;
1320;SDS011;653;51.480;11.992;2023-05-14T00:05:21;9.23;;;8.33;;
1320;SDS011;653;51.480;11.992;2023-05-14T00:07:46;9.80;;;8.90;;
1320;SDS011;653;51.480;11.992;2023-05-14T00:10:12;9.37;;;8.37;;
1320;SDS011;653;51.480;11.992;2023-05-14T00:12:37;10.50;;;9.50;;
1320;SDS011;653;51.480;11.992;2023-05-14T00:15:03;9.63;;;8.73;;
1320;SDS011;653;51.480;11.992;2023-05-14T00:17:28;8.47;;;7.67;;
1320;SDS011;653;51.480;11.992;2023-05-14T00:19:54;14.10;;;9.63;;
1320;SDS011;653;51.480;11.992;2023-05-14T00:22:19;9.30;;;8.50;;
1320;SDS011;653;51.480;11.992;2023-05-14T00:24:45;8.40;;;7.70;;
1320;SDS011;653;51.480;11.992;2023-05-14T00:27:11;10.63;;;9.50;;
1320;SDS011;653;51.480;11.992;2023-05-14T00:29:36;9.13;;;8.23;;
1320;SDS011;653;51.480;11.992;2023-05-14T00:32:02;10.60;;;9.70;;
1320;SDS011;653;51.480;11.992;2023-05-14T00:34:27;10.70;;;9.70;;
1320;SDS011;653;51.480;11.992;2023-05-14T00:36:53;9.73;;;8.83;;
1320;SDS011;653;51.480;11.992;2023-05-14T00:39:18;15.50;;;9.80;;
1320;SDS011;653;51.480;11.992;2023-05-14T00:41:44;9.87;;;8.83;;
1320;SDS011;653;51.480;11.992;2023-05-14T00:44:09;10.13;;;9.17;;
1320;SDS011;653;51.480;11.992;2023-05-14T00:46:35;10.90;;;9.80;;
1320;SDS011;653;51.480;11.992;2023-05-14T00:49:00;9.83;;;8.97;;
1320;SDS011;653;51.480;11.992;2023-05-14T00:51:25;11.00;;;9.90;;
1320;SDS011;653;51.480;11.992;2023-05-14T00:53:51;10.40;;;9.30;;
1320;SDS011;653;51.480;11.992;2023-05-14T00:56:17;10.23;;;9.30;;
1320;SDS011;653;51.480;11.992;2023-05-14T00:58:43;9.17;;;8.37;;
1320;SDS011;653;51.480;11.992;2023-05-14T01:01:08;11.10;;;9.20;;
1320;SDS011;653;51.480;11.992;2023-05-14T01:03:34;10.70;;;9.60;;
1320;SDS011;653;51.480;11.992;2023-05-14T01:06:05;9.90;;;9.00;;
1320;SDS011;653;51.480;11.992;2023-05-14T01:14:23;10.27;;;9.37;;
1320;SDS011;653;51.480;11.992;2023-05-14T01:16:54;10.03;;;9.10;;
1320;SDS011;653;51.480;11.992;2023-05-14T01:21:58;9.97;;;8.50;;
1320;SDS011;653;51.480;11.992;2023-05-14T01:24:23;10.30;;;9.23;;
1320;SDS011;653;51.480;11.992;2023-05-14T01:26:49;9.90;;;8.90;;
1320;SDS011;653;51.480;11.992;2023-05-14T01:29:17;13.23;;;9.20;;
1320;SDS011;653;51.480;11.992;2023-05-14T01:31:46;10.97;;;9.80;;
1320;SDS011;653;51.480;11.992;2023-05-14T01:34:13;10.90;;;9.90;;
1320;SDS011;653;51.480;11.992;2023-05-14T01:36:40;10.00;;;9.00;;
1320;SDS011;653;51.480;11.992;2023-05-14T01:39:08;11.93;;;8.87;;
1320;SDS011;653;51.480;11.992;2023-05-14T01:41:35;10.33;;;9.33;;
1320;SDS011;653;51.480;11.992;2023-05-14T01:44:01;10.27;;;9.20;;
1320;SDS011;653;51.480;11.992;2023-05-14T01:46:30;10.33;;;9.07;;
1320;SDS011;653;51.480;11.992;2023-05-14T01:48:57;10.43;;;9.20;;
1320;SDS011;653;51.480;11.992;2023-05-14T01:51:22;10.63;;;9.63;;
1320;SDS011;653;51.480;11.992;2023-05-14T01:53:48;10.53;;;8.90;;
1320;SDS011;653;51.480;11.992;2023-05-14T01:56:13;9.53;;;8.67;;
1320;SDS011;653;51.480;11.992;2023-05-14T01:58:39;10.60;;;9.60;;
1320;SDS011;653;51.480;11.992;2023-05-14T02:01:04;15.23;;;10.10;;
1320;SDS011;653;51.480;11.992;2023-05-14T02:03:30;13.90;;;8.37;;
1320;SDS011;653;51.480;11.992;2023-05-14T02:05:55;11.37;;;10.17;;
1320;SDS011;653;51.480;11.992;2023-05-14T02:08:23;10.90;;;9.90;;
1320;SDS011;653;51.480;11.992;2023-05-14T02:10:48;11.13;;;10.03;;
1320;SDS011;653;51.480;11.992;2023-05-14T02:13:14;9.70;;;8.70;;
1320;SDS011;653;51.480;11.992;2023-05-14T02:15:40;12.27;;;9.80;;
1320;SDS011;653;51.480;11.992;2023-05-14T02:18:05;10.03;;;9.03;;
1320;SDS011;653;51.480;11.992;2023-05-14T02:20:31;10.47;;;9.47;;
1320;SDS011;653;51.480;11.992;2023-05-14T02:22:56;10.07;;;9.07;;
1320;SDS011;653;51.480;11.992;2023-05-14T02:25:22;10.10;;;9.10;;
1320;SDS011;653;51.480;11.992;2023-05-14T02:27:47;10.97;;;9.87;;
1320;SDS011;653;51.480;11.992;2023-05-14T02:30:13;11.03;;;9.83;;
1320;SDS011;653;51.480;11.992;2023-05-14T02:32:39;10.60;;;9.60;;
1320;SDS011;653;51.480;11.992;2023-05-14T02:35:04;11.67;;;10.40;;
1320;SDS011;653;51.480;11.992;2023-05-14T02:37:30;10.73;;;9.80;;
1320;SDS011;653;51.480;11.992;2023-05-14T02:39:55;9.73;;;8.70;;
1320;SDS011;653;51.480;11.992;2023-05-14T02:42:21;11.23;;;9.60;;
1320;SDS011;653;51.480;11.992;2023-05-14T02:44:46;10.70;;;9.70;;
1320;SDS011;653;51.480;11.992;2023-05-14T02:47:12;12.10;;;10.00;;
1320;SDS011;653;51.480;11.992;2023-05-14T02:49:37;13.20;;;9.37;;
1320;SDS011;653;51.480;11.992;2023-05-14T02:52:04;11.93;;;9.80;;
1320;SDS011;653;51.480;11.992;2023-05-14T02:54:30;11.03;;;9.93;;
1320;SDS011;653;51.480;11.992;2023-05-14T02:56:55;10.43;;;9.30;;
1320;SDS011;653;51.480;11.992;2023-05-14T02:59:21;10.33;;;9.27;;
1320;SDS011;653;51.480;11.992;2023-05-14T03:01:48;10.90;;;9.90;;
1320;SDS011;653;51.480;11.992;2023-05-14T03:04:13;10.80;;;9.70;;
1320;SDS011;653;51.480;11.992;2023-05-14T03:06:39;10.63;;;9.63;;
1320;SDS011;653;51.480;11.992;2023-05-14T03:09:04;10.00;;;9.10;;
1320;SDS011;653;51.480;11.992;2023-05-14T03:11:29;9.80;;;8.80;;
1320;SDS011;653;51.480;11.992;2023-05-14T03:13:55;10.60;;;9.60;;
1320;SDS011;653;51.480;11.992;2023-05-14T03:16:20;10.23;;;9.30;;
1320;SDS011;653;51.480;11.992;2023-05-14T03:18:46;11.83;;;9.40;;
1320;SDS011;653;51.480;11.992;2023-05-14T03:21:11;10.40;;;9.20;;
1320;SDS011;653;51.480;11.992;2023-05-14T03:23:38;10.27;;;9.23;;
1320;SDS011;653;51.480;11.992;2023-05-14T03:26:03;11.60;;;10.43;;
1320;SDS011;653;51.480;11.992;2023-05-14T03:28:29;10.63;;;9.73;;
1320;SDS011;653;51.480;11.992;2023-05-14T03:30:54;9.80;;;8.80;;
1320;SDS011;653;51.480;11.992;2023-05-14T03:33:20;10.93;;;9.97;;
1320;SDS011;653;51.480;11.992;2023-05-14T03:35:46;10.10;;;9.10;;
1320;SDS011;653;51.480;11.992;2023-05-14T03:38:12;9.57;;;8.77;;
1320;SDS011;653;51.480;11.992;2023-05-14T03:40:37;10.20;;;9.10;;
1320;SDS011;653;51.480;11.992;2023-05-14T03:43:03;9.17;;;8.37;;
1320;SDS011;653;51.480;11.992;2023-05-14T03:45:31;11.17;;;9.10;;
1320;SDS011;653;51.480;11.992;2023-05-14T03:47:57;9.93;;;8.93;;
1320;SDS011;653;51.480;11.992;2023-05-14T03:50:22;11.17;;;9.97;;
1320;SDS011;653;51.480;11.992;2023-05-14T03:52:50;12.20;;;9.83;;
1320;SDS011;653;51.480;11.992;2023-05-14T03:55:19;9.93;;;8.70;;
1320;SDS011;653;51.480;11.992;2023-05-14T03:57:46;12.47;;;8.77;;
1320;SDS011;653;51.480;11.992;2023-05-14T04:00:12;10.73;;;9.73;;
1320;SDS011;653;51.480;11.992;2023-05-14T04:02:38;11.17;;;10.13;;
1320;SDS011;653;51.480;11.992;2023-05-14T04:05:03;10.57;;;9.47;;
1320;SDS011;653;51.480;11.992;2023-05-14T04:07:29;13.93;;;9.93;;
1320;SDS011;653;51.480;11.992;2023-05-14T04:09:54;10.60;;;9.60;;
1320;SDS011;653;51.480;11.992;2023-05-14T04:12:20;11.00;;;10.00;;
1320;SDS011;653;51.480;11.992;2023-05-14T04:14:45;11.60;;;10.43;;
1320;SDS011;653;51.480;11.992;2023-05-14T04:17:12;11.23;;;10.23;;
1320;SDS011;653;51.480;11.992;2023-05-14T04:19:37;12.43;;;11.23;;
1320;SDS011;653;51.480;11.992;2023-05-14T04:22:03;11.20;;;9.70;;
1320;SDS011;653;51.480;11.992;2023-05-14T04:24:29;11.30;;;9.80;;
1320;SDS011;653;51.480;11.992;2023-05-14T04:26:54;11.50;;;9.87;;
1320;SDS011;653;51.480;11.992;2023-05-14T04:29:20;14.80;;;10.10;;
1320;SDS011;653;51.480;11.992;2023-05-14T04:31:45;11.70;;;10.50;;
1320;SDS011;653;51.480;11.992;2023-05-14T04:34:11;11.70;;;10.50;;
1320;SDS011;653;51.480;11.992;2023-05-14T04:36:36;10.60;;;9.60;;
1320;SDS011;653;51.480;11.992;2023-05-14T04:39:01;10.90;;;9.90;;
1320;SDS011;653;51.480;11.992;2023-05-14T04:41:28;12.40;;;11.10;;
1320;SDS011;653;51.480;11.992;2023-05-14T04:43:54;11.50;;;10.40;;
1320;SDS011;653;51.480;11.992;2023-05-14T04:46:20;11.27;;;10.17;;
1320;SDS011;653;51.480;11.992;2023-05-14T04:48:46;11.90;;;10.27;;
1320;SDS011;653;51.480;11.992;2023-05-14T04:51:12;12.70;;;10.70;;
1320;SDS011;653;51.480;11.992;2023-05-14T04:53:38;11.90;;;10.70;;
1320;SDS011;653;51.480;11.992;2023-05-14T04:56:03;12.27;;;10.97;;
1320;SDS011;653;51.480;11.992;2023-05-14T04:58:29;12.23;;;11.00;;
1320;SDS011;653;51.480;11.992;2023-05-14T05:00:56;9.53;;;8.60;;
1320;SDS011;653;51.480;11.992;2023-05-14T05:03:22;12.10;;;10.80;;
1320;SDS011;653;51.480;11.992;2023-05-14T05:05:47;12.40;;;11.20;;
1320;SDS011;653;51.480;11.992;2023-05-14T05:08:13;11.10;;;10.10;;
1320;SDS011;653;51.480;11.992;2023-05-14T05:10:38;10.97;;;9.97;;
1320;SDS011;653;51.480;11.992;2023-05-14T05:13:04;11.50;;;10.40;;
1320;SDS011;653;51.480;11.992;2023-05-14T05:15:29;10.60;;;9.50;;
1320;SDS011;653;51.480;11.992;2023-05-14T05:17:54;10.97;;;9.90;;
1320;SDS011;653;51.480;11.992;2023-05-14T05:20:20;10.00;;;9.10;;
1320;SDS011;653;51.480;11.992;2023-05-14T05:22:45;10.30;;;9.40;;
1320;SDS011;653;51.480;11.992;2023-05-14T05:25:11;9.97;;;9.07;;
1320;SDS011;653;51.480;11.992;2023-05-14T05:27:37;11.13;;;10.20;;
1320;SDS011;653;51.480;11.992;2023-05-14T05:30:03;10.80;;;9.80;;
1320;SDS011;653;51.480;11.992;2023-05-14T05:32:28;10.33;;;9.53;;
1320;SDS011;653;51.480;11.992;2023-05-14T05:34:54;10.10;;;9.20;;
1320;SDS011;653;51.480;11.992;2023-05-14T05:37:20;9.40;;;8.50;;
1320;SDS011;653;51.480;11.992;2023-05-14T05:39:45;10.33;;;9.33;;
1320;SDS011;653;51.480;11.992;2023-05-14T05:42:12;11.60;;;10.50;;
1320;SDS011;653;51.480;11.992;2023-05-14T05:44:37;10.67;;;9.67;;
1320;SDS011;653;51.480;11.992;2023-05-14T05:47:03;10.80;;;9.73;;
1320;SDS011;653;51.480;11.992;2023-05-14T05:49:28;10.30;;;9.40;;
1320;SDS011;653;51.480;11.992;2023-05-14T05:51:54;10.13;;;9.13;;
1320;SDS011;653;51.480;11.992;2023-05-14T05:54:19;11.23;;;10.13;;
1320;SDS011;653;51.480;11.992;2023-05-14T05:56:45;10.60;;;9.60;;
1320;SDS011;653;51.480;11.992;2023-05-14T05:59:10;10.40;;;9.43;;
1320;SDS011;653;51.480;11.992;2023-05-14T06:01:35;10.20;;;9.20;;
1320;SDS011;653;51.480;11.992;2023-05-14T06:04:02;10.37;;;9.50;;
1320;SDS011;653;51.480;11.992;2023-05-14T06:06:29;9.33;;;8.53;;
1320;SDS011;653;51.480;11.992;2023-05-14T06:08:56;10.03;;;9.07;;
1320;SDS011;653;51.480;11.992;2023-05-14T06:11:22;9.47;;;8.60;;
1320;SDS011;653;51.480;11.992;2023-05-14T06:13:47;9.70;;;8.83;;
1320;SDS011;653;51.480;11.992;2023-05-14T06:16:12;9.67;;;8.80;;
1320;SDS011;653;51.480;11.992;2023-05-14T06:18:38;9.37;;;8.57;;
1320;SDS011;653;51.480;11.992;2023-05-14T06:21:03;8.90;;;8.17;;
1320;SDS011;653;51.480;11.992;2023-05-14T06:23:29;8.90;;;8.07;;
1320;SDS011;653;51.480;11.992;2023-05-14T06:25:54;9.70;;;8.70;;
1320;SDS011;653;51.480;11.992;2023-05-14T06:28:19;9.47;;;8.60;;
1320;SDS011;653;51.480;11.992;2023-05-14T06:30:45;8.73;;;8.03;;
1320;SDS011;653;51.480;11.992;2023-05-14T06:33:13;10.70;;;9.77;;
1320;SDS011;653;51.480;11.992;2023-05-14T06:35:39;10.27;;;9.37;;
1320;SDS011;653;51.480;11.992;2023-05-14T06:38:04;9.70;;;8.70;;
1320;SDS011;653;51.480;11.992;2023-05-14T06:40:30;9.40;;;8.63;;
1320;SDS011;653;51.480;11.992;2023-05-14T06:42:55;9.40;;;8.70;;
1320;SDS011;653;51.480;11.992;2023-05-14T06:45:21;9.03;;;8.13;;
1320;SDS011;653;51.480;11.992;2023-05-14T06:47:46;10.10;;;9.23;;
1320;SDS011;653;51.480;11.992;2023-05-14T06:50:12;9.90;;;8.93;;
1320;SDS011;653;51.480;11.992;2023-05-14T06:52:37;10.20;;;9.23;;
1320;SDS011;653;51.480;11.992;2023-05-14T06:55:02;10.10;;;9.23;;
1320;SDS011;653;51.480;11.992;2023-05-14T06:57:28;9.40;;;8.63;;
1320;SDS011;653;51.480;11.992;2023-05-14T06:59:53;10.10;;;9.07;;
1320;SDS011;653;51.480;11.992;2023-05-14T07:02:19;10.33;;;9.43;;
1320;SDS011;653;51.480;11.992;2023-05-14T07:04:45;8.90;;;8.10;;
1320;SDS011;653;51.480;11.992;2023-05-14T07:07:10;9.60;;;8.73;;
1320;SDS011;653;51.480;11.992;2023-05-14T07:09:39;10.03;;;9.10;;
1320;SDS011;653;51.480;11.992;2023-05-14T07:12:06;8.90;;;8.00;;
1320;SDS011;653;51.480;11.992;2023-05-14T07:14:32;9.07;;;8.20;;
1320;SDS011;653;51.480;11.992;2023-05-14T07:16:57;9.57;;;8.77;;
1320;SDS011;653;51.480;11.992;2023-05-14T07:19:23;9.33;;;8.53;;
1320;SDS011;653;51.480;11.992;2023-05-14T07:21:48;9.90;;;8.90;;
1320;SDS011;653;51.480;11.992;2023-05-14T07:24:13;10.60;;;8.37;;
1320;SDS011;653;51.480;11.992;2023-05-14T07:26:39;10.97;;;10.00;;
1320;SDS011;653;51.480;11.992;2023-05-14T07:29:04;9.63;;;8.80;;
1320;SDS011;653;51.480;11.992;2023-05-14T07:31:29;9.20;;;8.40;;
1320;SDS011;653;51.480;11.992;2023-05-14T07:33:55;9.90;;;9.00;;
1320;SDS011;653;51.480;11.992;2023-05-14T07:36:20;9.37;;;8.57;;
1320;SDS011;653;51.480;11.992;2023-05-14T07:38:46;11.57;;;9.83;;
1320;SDS011;653;51.480;11.992;2023-05-14T07:41:11;10.20;;;9.30;;
1320;SDS011;653;51.480;11.992;2023-05-14T07:43:37;9.43;;;8.63;;
1320;SDS011;653;51.480;11.992;2023-05-14T07:46:03;10.37;;;9.37;;
1320;SDS011;653;51.480;11.992;2023-05-14T07:48:28;11.20;;;8.70;;
1320;SDS011;653;51.480;11.992;2023-05-14T07:50:53;10.50;;;9.53;;
1320;SDS011;653;51.480;11.992;2023-05-14T07:53:19;9.73;;;8.93;;
1320;SDS011;653;51.480;11.992;2023-05-14T07:55:44;9.90;;;9.10;;
1320;SDS011;653;51.480;11.992;2023-05-14T07:58:12;9.60;;;8.40;;
1320;SDS011;653;51.480;11.992;2023-05-14T08:00:37;11.53;;;8.70;;
1320;SDS011;653;51.480;11.992;2023-05-14T08:03:03;8.90;;;8.00;;
1320;SDS011;653;51.480;11.992;2023-05-14T08:05:29;9.30;;;8.50;;
1320;SDS011;653;51.480;11.992;2023-05-14T08:07:55;8.50;;;7.70;;
1320;SDS011;653;51.480;11.992;2023-05-14T08:10:20;9.70;;;8.07;;
1320;SDS011;653;51.480;11.992;2023-05-14T08:12:46;11.40;;;9.47;;
1320;SDS011;653;51.480;11.992;2023-05-14T08:15:12;9.80;;;9.00;;
1320;SDS011;653;51.480;11.992;2023-05-14T08:17:37;11.20;;;8.40;;
1320;SDS011;653;51.480;11.992;2023-05-14T08:20:02;10.00;;;8.30;;
1320;SDS011;653;51.480;11.992;2023-05-14T08:22:30;9.47;;;8.57;;
1320;SDS011;653;51.480;11.992;2023-05-14T08:24:55;10.00;;;9.03;;
1320;SDS011;653;51.480;11.992;2023-05-14T08:27:21;9.70;;;8.80;;
1320;SDS011;653;51.480;11.992;2023-05-14T08:29:47;8.47;;;7.73;;
1320;SDS011;653;51.480;11.992;2023-05-14T08:32:12;9.07;;;8.37;;
1320;SDS011;653;51.480;11.992;2023-05-14T08:34:38;7.10;;;6.50;;
1320;SDS011;653;51.480;11.992;2023-05-14T08:37:03;8.83;;;7.20;;
1320;SDS011;653;51.480;11.992;2023-05-14T08:39:29;8.00;;;6.87;;
1320;SDS011;653;51.480;11.992;2023-05-14T08:41:54;9.37;;;8.57;;
1320;SDS011;653;51.480;11.992;2023-05-14T08:44:28;9.37;;;8.57;;
1320;SDS011;653;51.480;11.992;2023-05-14T08:46:57;7.80;;;7.10;;
1320;SDS011;653;51.480;11.992;2023-05-14T08:52:01;8.13;;;7.33;;
1320;SDS011;653;51.480;11.992;2023-05-14T08:54:26;9.27;;;8.40;;
1320;SDS011;653;51.480;11.992;2023-05-14T08:56:52;8.97;;;8.27;;
1320;SDS011;653;51.480;11.992;2023-05-14T08:59:20;8.17;;;7.47;;
1320;SDS011;653;51.480;11.992;2023-05-14T09:01:47;9.53;;;8.40;;
1320;SDS011;653;51.480;11.992;2023-05-14T09:04:18;7.57;;;6.97;;
1320;SDS011;653;51.480;11.992;2023-05-14T09:06:49;7.53;;;6.93;;
1320;SDS011;653;51.480;11.992;2023-05-14T09:09:15;8.13;;;7.43;;
1320;SDS011;653;51.480;11.992;2023-05-14T09:11:44;8.10;;;7.40;;
1320;SDS011;653;51.480;11.992;2023-05-14T09:14:10;7.90;;;7.20;;
1320;SDS011;653;51.480;11.992;2023-05-14T09:16:36;8.13;;;7.03;;
1320;SDS011;653;51.480;11.992;2023-05-14T09:19:05;8.30;;;7.30;;
1320;SDS011;653;51.480;11.992;2023-05-14T09:21:31;7.90;;;7.30;;
1320;SDS011;653;51.480;11.992;2023-05-14T09:23:57;7.63;;;6.93;;
1320;SDS011;653;51.480;11.992;2023-05-14T09:26:23;9.43;;;7.40;;
1320;SDS011;653;51.480;11.992;2023-05-14T09:28:52;9.17;;;7.87;;
1320;SDS011;653;51.480;11.992;2023-05-14T09:31:19;7.93;;;7.23;;
1320;SDS011;653;51.480;11.992;2023-05-14T09:33:48;7.93;;;7.23;;
1320;SDS011;653;51.480;11.992;2023-05-14T09:36:17;7.97;;;7.17;;
1320;SDS011;653;51.480;11.992;2023-05-14T09:38:43;9.10;;;7.50;;
1320;SDS011;653;51.480;11.992;2023-05-14T09:41:08;8.30;;;7.60;;
1320;SDS011;653;51.480;11.992;2023-05-14T09:43:34;8.40;;;7.70;;
1320;SDS011;653;51.480;11.992;2023-05-14T09:45:59;8.87;;;7.97;;
1320;SDS011;653;51.480;11.992;2023-05-14T09:48:25;8.47;;;7.67;;
1320;SDS011;653;51.480;11.992;2023-05-14T09:50:50;9.60;;;7.90;;
1320;SDS011;653;51.480;11.992;2023-05-14T09:53:16;8.00;;;7.30;;
1320;SDS011;653;51.480;11.992;2023-05-14T09:55:42;8.53;;;7.77;;
1320;SDS011;653;51.480;11.992;2023-05-14T09:58:08;8.53;;;7.83;;
1320;SDS011;653;51.480;11.992;2023-05-14T10:00:34;7.63;;;6.90;;
1320;SDS011;653;51.480;11.992;2023-05-14T10:03:03;8.00;;;7.10;;
1320;SDS011;653;51.480;11.992;2023-05-14T10:05:32;7.50;;;6.80;;
1320;SDS011;653;51.480;11.992;2023-05-14T10:07:59;8.50;;;7.80;;
1320;SDS011;653;51.480;11.992;2023-05-14T10:10:33;8.00;;;7.33;;
1320;SDS011;653;51.480;11.992;2023-05-14T10:13:01;9.57;;;7.40;;
1320;SDS011;653;51.480;11.992;2023-05-14T10:16:17;7.90;;;7.20;;
1320;SDS011;653;51.480;11.992;2023-05-14T10:18:30;13.80;;;7.40;;
1320;SDS011;653;51.480;11.992;2023-05-14T10:20:56;7.47;;;6.63;;
1320;SDS011;653;51.480;11.992;2023-05-14T10:23:27;8.07;;;7.27;;
1320;SDS011;653;51.480;11.992;2023-05-14T10:25:52;9.20;;;7.87;;
1320;SDS011;653;51.480;11.992;2023-05-14T10:28:18;6.90;;;6.30;;
1320;SDS011;653;51.480;11.992;2023-05-14T10:30:44;7.40;;;6.70;;
1320;SDS011;653;51.480;11.992;2023-05-14T10:33:11;9.80;;;8.10;;
1320;SDS011;653;51.480;11.992;2023-05-14T10:38:33;8.23;;;6.30;;
1320;SDS011;653;51.480;11.992;2023-05-14T10:41:20;9.17;;;6.80;;
1320;SDS011;653;51.480;11.992;2023-05-14T10:43:46;7.57;;;6.87;;
1320;SDS011;653;51.480;11.992;2023-05-14T10:46:12;8.40;;;7.23;;
1320;SDS011;653;51.480;11.992;2023-05-14T10:48:39;7.00;;;6.40;;
1320;SDS011;653;51.480;11.992;2023-05-14T10:51:06;7.90;;;7.10;;
1320;SDS011;653;51.480;11.992;2023-05-14T10:53:34;7.53;;;6.83;;
1320;SDS011;653;51.480;11.992;2023-05-14T10:56:08;7.63;;;6.93;;
1320;SDS011;653;51.480;11.992;2023-05-14T10:58:35;7.90;;;7.17;;
1320;SDS011;653;51.480;11.992;2023-05-14T11:01:08;8.20;;;7.13;;
1320;SDS011;653;51.480;11.992;2023-05-14T11:03:39;7.33;;;6.70;;
1320;SDS011;653;51.480;11.992;2023-05-14T11:06:04;8.70;;;8.00;;
1320;SDS011;653;51.480;11.992;2023-05-14T11:08:31;7.87;;;7.07;;
1320;SDS011;653;51.480;11.992;2023-05-14T11:10:56;7.00;;;6.40;;
1320;SDS011;653;51.480;11.992;2023-05-14T11:13:22;7.30;;;6.60;;
1320;SDS011;653;51.480;11.992;2023-05-14T11:15:50;8.07;;;7.27;;
1320;SDS011;653;51.480;11.992;2023-05-14T11:18:25;7.77;;;7.17;;
1320;SDS011;653;51.480;11.992;2023-05-14T11:20:52;8.73;;;6.27;;
1320;SDS011;653;51.480;11.992;2023-05-14T11:23:17;9.33;;;7.20;;
1320;SDS011;653;51.480;11.992;2023-05-14T11:25:42;8.53;;;7.40;;
1320;SDS011;653;51.480;11.992;2023-05-14T11:28:08;7.20;;;6.60;;
1320;SDS011;653;51.480;11.992;2023-05-14T11:30:34;8.90;;;7.70;;
1320;SDS011;653;51.480;11.992;2023-05-14T11:32:59;8.10;;;7.43;;
1320;SDS011;653;51.480;11.992;2023-05-14T11:35:25;7.53;;;6.93;;
1320;SDS011;653;51.480;11.992;2023-05-14T11:37:51;8.57;;;7.77;;
1320;SDS011;653;51.480;11.992;2023-05-14T11:40:16;8.23;;;7.53;;
1320;SDS011;653;51.480;11.992;2023-05-14T11:42:42;8.80;;;8.10;;
1320;SDS011;653;51.480;11.992;2023-05-14T11:45:11;9.07;;;8.27;;
1320;SDS011;653;51.480;11.992;2023-05-14T11:47:37;8.47;;;7.67;;
1320;SDS011;653;51.480;11.992;2023-05-14T11:50:03;10.10;;;9.03;;
1320;SDS011;653;51.480;11.992;2023-05-14T11:52:28;8.40;;;7.70;;
1320;SDS011;653;51.480;11.992;2023-05-14T11:54:55;8.70;;;7.90;;
1320;SDS011;653;51.480;11.992;2023-05-14T11:57:20;9.73;;;8.10;;
1320;SDS011;653;51.480;11.992;2023-05-14T11:59:47;9.00;;;7.00;;
1320;SDS011;653;51.480;11.992;2023-05-14T12:02:17;11.90;;;8.80;;
1320;SDS011;653;51.480;11.992;2023-05-14T12:04:43;7.90;;;7.20;;
1320;SDS011;653;51.480;11.992;2023-05-14T12:07:15;8.30;;;7.60;;
1320;SDS011;653;51.480;11.992;2023-05-14T12:09:42;7.73;;;7.03;;
1320;SDS011;653;51.480;11.992;2023-05-14T12:12:13;13.40;;;7.67;;
1320;SDS011;653;51.480;11.992;2023-05-14T12:14:44;8.37;;;7.63;;
1320;SDS011;653;51.480;11.992;2023-05-14T12:17:11;7.80;;;6.97;;
1320;SDS011;653;51.480;11.992;2023-05-14T12:19:40;9.07;;;8.00;;
1320;SDS011;653;51.480;11.992;2023-05-14T12:22:07;8.57;;;7.73;;
1320;SDS011;653;51.480;11.992;2023-05-14T12:24:33;8.40;;;7.60;;
1320;SDS011;653;51.480;11.992;2023-05-14T12:27:00;9.13;;;8.23;;
1320;SDS011;653;51.480;11.992;2023-05-14T12:29:26;9.00;;;6.97;;
1320;SDS011;653;51.480;11.992;2023-05-14T12:31:51;8.07;;;7.40;;
1320;SDS011;653;51.480;11.992;2023-05-14T12:34:17;7.90;;;7.20;;
1320;SDS011;653;51.480;11.992;2023-05-14T12:36:42;8.23;;;7.53;;
1320;SDS011;653;51.480;11.992;2023-05-14T12:39:08;8.17;;;7.37;;
1320;SDS011;653;51.480;11.992;2023-05-14T12:41:34;8.10;;;7.20;;
1320;SDS011;653;51.480;11.992;2023-05-14T12:44:01;7.97;;;7.23;;
1320;SDS011;653;51.480;11.992;2023-05-14T12:46:30;8.10;;;7.37;;
1320;SDS011;653;51.480;11.992;2023-05-14T12:48:57;7.40;;;6.80;;
1320;SDS011;653;51.480;11.992;2023-05-14T12:51:25;8.30;;;7.50;;
1320;SDS011;653;51.480;11.992;2023-05-14T12:53:50;7.80;;;7.10;;
1320;SDS011;653;51.480;11.992;2023-05-14T12:56:18;7.80;;;7.10;;
1320;SDS011;653;51.480;11.992;2023-05-14T12:58:44;8.57;;;7.90;;
1320;SDS011;653;51.480;11.992;2023-05-14T13:01:11;8.13;;;7.33;;
1320;SDS011;653;51.480;11.992;2023-05-14T13:03:36;9.00;;;7.00;;
1320;SDS011;653;51.480;11.992;2023-05-14T13:06:01;7.80;;;7.00;;
1320;SDS011;653;51.480;11.992;2023-05-14T13:08:27;6.40;;;5.90;;
1320;SDS011;653;51.480;11.992;2023-05-14T13:10:52;6.60;;;6.00;;
1320;SDS011;653;51.480;11.992;2023-05-14T13:13:18;6.40;;;5.80;;
1320;SDS011;653;51.480;11.992;2023-05-14T13:15:44;6.93;;;6.20;;
1320;SDS011;653;51.480;11.992;2023-05-14T13:18:11;7.37;;;6.77;;
1320;SDS011;653;51.480;11.992;2023-05-14T13:20:37;8.00;;;6.87;;
1320;SDS011;653;51.480;11.992;2023-05-14T13:23:03;6.50;;;5.90;;
1320;SDS011;653;51.480;11.992;2023-05-14T13:25:28;8.00;;;6.57;;
1320;SDS011;653;51.480;11.992;2023-05-14T13:27:54;6.60;;;6.00;;
1320;SDS011;653;51.480;11.992;2023-05-14T13:30:19;6.80;;;6.20;;
1320;SDS011;653;51.480;11.992;2023-05-14T13:32:45;7.40;;;6.67;;
1320;SDS011;653;51.480;11.992;2023-05-14T13:35:11;9.67;;;6.67;;
1320;SDS011;653;51.480;11.992;2023-05-14T13:37:37;7.20;;;6.30;;
1320;SDS011;653;51.480;11.992;2023-05-14T13:40:03;6.07;;;5.53;;
1320;SDS011;653;51.480;11.992;2023-05-14T13:42:29;6.40;;;5.90;;
1320;SDS011;653;51.480;11.992;2023-05-14T13:44:56;6.67;;;5.93;;
1320;SDS011;653;51.480;11.992;2023-05-14T13:47:22;6.70;;;6.10;;
1320;SDS011;653;51.480;11.992;2023-05-14T13:49:48;6.57;;;5.77;;
1320;SDS011;653;51.480;11.992;2023-05-14T13:52:13;7.00;;;6.30;;
1320;SDS011;653;51.480;11.992;2023-05-14T13:54:38;6.03;;;5.50;;
1320;SDS011;653;51.480;11.992;2023-05-14T13:57:04;6.40;;;5.90;;
1320;SDS011;653;51.480;11.992;2023-05-14T13:59:29;6.72;;;6.05;;
1320;SDS011;653;51.480;11.992;2023-05-14T14:01:55;6.70;;;6.03;;
1320;SDS011;653;51.480;11.992;2023-05-14T14:04:20;6.35;;;5.75;;
1320;SDS011;653;51.480;11.992;2023-05-14T14:06:46;8.68;;;6.72;;
1320;SDS011;653;51.480;11.992;2023-05-14T14:09:11;6.40;;;5.90;;
1320;SDS011;653;51.480;11.992;2023-05-14T14:11:38;6.57;;;6.03;;
1320;SDS011;653;51.480;11.992;2023-05-14T14:14:03;7.07;;;6.47;;
1320;SDS011;653;51.480;11.992;2023-05-14T14:16:29;6.90;;;6.30;;
1320;SDS011;653;51.480;11.992;2023-05-14T14:18:54;6.53;;;5.93;;
1320;SDS011;653;51.480;11.992;2023-05-14T14:21:20;7.17;;;6.40;;
1320;SDS011;653;51.480;11.992;2023-05-14T14:23:45;6.93;;;6.33;;
1320;SDS011;653;51.480;11.992;2023-05-14T14:26:11;8.23;;;6.40;;
1320;SDS011;653;51.480;11.992;2023-05-14T14:28:36;9.40;;;6.73;;
1320;SDS011;653;51.480;11.992;2023-05-14T14:31:02;8.32;;;6.75;;
1320;SDS011;653;51.480;11.992;2023-05-14T14:33:27;7.38;;;6.78;;
1320;SDS011;653;51.480;11.992;2023-05-14T14:35:53;6.77;;;6.20;;
1320;SDS011;653;51.480;11.992;2023-05-14T14:38:21;6.43;;;5.93;;
1320;SDS011;653;51.480;11.992;2023-05-14T14:40:47;6.78;;;6.28;;
1320;SDS011;653;51.480;11.992;2023-05-14T14:43:12;11.45;;;6.07;;
1320;SDS011;653;51.480;11.992;2023-05-14T14:45:37;7.60;;;6.72;;
1320;SDS011;653;51.480;11.992;2023-05-14T14:50:58;7.22;;;6.63;;
1320;SDS011;653;51.480;11.992;2023-05-14T14:53:25;7.20;;;6.70;;
1320;SDS011;653;51.480;11.992;2023-05-14T14:55:50;6.97;;;6.15;;
1320;SDS011;653;51.480;11.992;2023-05-14T14:58:16;6.50;;;6.00;;
1320;SDS011;653;51.480;11.992;2023-05-14T15:00:42;7.25;;;6.60;;
1320;SDS011;653;51.480;11.992;2023-05-14T15:03:08;6.80;;;5.97;;
1320;SDS011;653;51.480;11.992;2023-05-14T15:05:34;6.80;;;6.30;;
1320;SDS011;653;51.480;11.992;2023-05-14T15:07:59;5.65;;;5.15;;
1320;SDS011;653;51.480;11.992;2023-05-14T15:10:30;6.32;;;5.82;;
1320;SDS011;653;51.480;11.992;2023-05-14T15:12:58;5.60;;;5.10;;
1320;SDS011;653;51.480;11.992;2023-05-14T15:15:24;6.07;;;5.47;;
1320;SDS011;653;51.480;11.992;2023-05-14T15:17:50;6.30;;;5.78;;